createdAt,value
2018-08-19T00:00:47.268Z,17.52
2018-08-19T00:03:14.792Z,18.42
2018-08-19T00:05:42.317Z,18.37
2018-08-19T00:08:09.823Z,18.82
2018-08-19T00:11:10.583Z,18.10
2018-08-19T00:13:38.695Z,18.25
2018-08-19T00:16:07.827Z,17.82
2018-08-19T00:18:35.594Z,17.12
2018-08-19T00:21:07.996Z,18.50
2018-08-19T00:23:41.234Z,19.40
2018-08-19T00:26:10.548Z,20.80
2018-08-19T00:28:38.059Z,20.88
2018-08-19T00:31:05.962Z,20.95
2018-08-19T00:33:33.846Z,21.15
2018-08-19T00:36:17.842Z,21.77
2018-08-19T00:38:45.380Z,20.75
2018-08-19T00:41:12.904Z,21.75
2018-08-19T00:43:40.418Z,24.43
2018-08-19T00:46:20.769Z,23.73
2018-08-19T00:48:48.275Z,23.80
2018-08-19T00:51:15.783Z,24.18
2018-08-19T00:53:43.292Z,25.37
2018-08-19T00:56:10.804Z,28.45
2018-08-19T00:58:38.606Z,29.82
2018-08-19T01:01:13.697Z,28.52
2018-08-19T01:03:53.812Z,30.70
2018-08-19T01:06:21.365Z,32.25
2018-08-19T01:08:48.871Z,30.88
2018-08-19T01:11:26.750Z,29.37
2018-08-19T01:13:54.258Z,34.63
2018-08-19T01:16:22.146Z,35.85
2018-08-19T01:18:54.264Z,33.98
2018-08-19T01:21:21.779Z,34.18
2018-08-19T01:23:49.277Z,30.97
2018-08-19T01:26:16.794Z,32.70
2018-08-19T01:28:44.291Z,31.73
2018-08-19T01:31:12.331Z,30.40
2018-08-19T01:33:39.851Z,31.20
2018-08-19T01:36:07.366Z,30.40
2018-08-19T01:38:34.876Z,30.60
2018-08-19T01:41:02.378Z,32.65
2018-08-19T01:43:29.875Z,32.85
2018-08-19T01:45:58.734Z,32.53
2018-08-19T01:48:26.776Z,29.82
2018-08-19T01:50:54.284Z,30.70
2018-08-19T01:53:21.784Z,31.17
2018-08-19T01:55:49.309Z,30.88
2018-08-19T01:58:16.819Z,31.68
2018-08-19T02:00:44.340Z,29.67
2018-08-19T02:03:11.858Z,29.77
2018-08-19T02:05:39.362Z,28.67
2018-08-19T02:08:06.877Z,28.23
2018-08-19T02:10:34.614Z,28.50
2018-08-19T02:13:02.331Z,28.65
2018-08-19T02:15:30.771Z,28.38
2018-08-19T02:17:59.444Z,27.50
2018-08-19T02:20:31.531Z,30.35
2018-08-19T02:23:01.939Z,29.95
2018-08-19T02:25:38.598Z,30.17
2018-08-19T02:28:08.118Z,30.45
2018-08-19T02:30:41.855Z,31.02
2018-08-19T02:33:09.359Z,32.33
2018-08-19T02:35:36.862Z,32.10
2018-08-19T02:38:04.378Z,32.98
2018-08-19T02:40:32.580Z,31.85
2018-08-19T02:43:00.379Z,32.45
2018-08-19T02:45:27.889Z,33.42
2018-08-19T02:47:55.394Z,33.10
2018-08-19T02:50:22.898Z,35.08
2018-08-19T02:52:50.426Z,32.75
2018-08-19T02:55:17.924Z,33.58
2018-08-19T02:57:45.406Z,33.65
2018-08-19T03:00:12.939Z,33.30
2018-08-19T03:02:41.432Z,31.30
2018-08-19T03:05:12.167Z,33.73
2018-08-19T03:07:39.934Z,31.17
2018-08-19T03:10:09.822Z,33.08
2018-08-19T03:12:37.623Z,33.80
2018-08-19T03:15:06.956Z,33.30
2018-08-19T03:17:34.457Z,33.28
2018-08-19T03:20:02.157Z,33.90
2018-08-19T03:22:30.211Z,33.40
2018-08-19T03:24:59.019Z,38.70
2018-08-19T03:27:26.520Z,36.45
2018-08-19T03:29:56.482Z,35.20
2018-08-19T03:32:24.451Z,36.57
2018-08-19T03:34:55.937Z,35.38
2018-08-19T03:37:23.443Z,36.28
2018-08-19T03:39:50.939Z,38.08
2018-08-19T03:42:18.447Z,39.90
2018-08-19T03:44:45.939Z,38.85
2018-08-19T03:47:19.127Z,37.90
2018-08-19T03:49:47.399Z,42.95
2018-08-19T03:52:15.470Z,41.63
2018-08-19T03:54:43.942Z,44.15
2018-08-19T03:57:11.447Z,50.40
2018-08-19T03:59:41.823Z,43.20
2018-08-19T04:02:09.459Z,45.40
2018-08-19T04:04:36.956Z,46.25
2018-08-19T04:07:04.471Z,47.73
2018-08-19T04:09:31.967Z,44.15
2018-08-19T04:12:10.687Z,45.25
2018-08-19T04:14:38.194Z,49.75
2018-08-19T04:17:06.648Z,48.20
2018-08-19T04:19:34.145Z,50.00
2018-08-19T04:22:03.594Z,47.90
2018-08-19T04:24:31.675Z,46.92
2018-08-19T04:27:05.314Z,47.80
2018-08-19T04:29:33.571Z,47.62
2018-08-19T04:32:01.846Z,47.25
2018-08-19T04:34:29.507Z,43.50
2018-08-19T04:36:57.026Z,37.85
2018-08-19T04:39:24.518Z,39.15
2018-08-19T04:41:52.028Z,45.08
2018-08-19T04:44:19.524Z,39.27
2018-08-19T04:46:47.018Z,44.03
2018-08-19T04:49:14.529Z,39.18
2018-08-19T04:51:42.035Z,46.00
2018-08-19T04:54:09.538Z,40.23
2018-08-19T04:56:37.062Z,37.83
2018-08-19T04:59:04.687Z,36.17
2018-08-19T05:01:32.201Z,35.48
2018-08-19T05:03:59.695Z,36.60
2018-08-19T05:06:27.199Z,37.30
2018-08-19T05:08:54.694Z,33.50
2018-08-19T05:11:22.195Z,33.30
2018-08-19T05:13:49.690Z,34.35
2018-08-19T05:16:17.204Z,32.65
2018-08-19T05:18:49.595Z,31.62
2018-08-19T05:21:17.570Z,30.45
2018-08-19T05:23:45.400Z,30.35
2018-08-19T05:26:13.271Z,30.02
2018-08-19T05:28:41.059Z,28.42
2018-08-19T05:31:08.572Z,28.57
2018-08-19T05:33:36.074Z,31.07
2018-08-19T05:36:03.580Z,25.00
2018-08-19T05:38:32.099Z,22.22
2018-08-19T05:41:00.578Z,23.20
2018-08-19T05:43:29.060Z,20.50
2018-08-19T05:45:57.744Z,19.73
2018-08-19T05:48:25.410Z,18.52
2018-08-19T05:50:53.382Z,18.98
2018-08-19T05:53:21.247Z,18.37
2018-08-19T05:55:48.742Z,17.60
2018-08-19T05:58:16.466Z,16.48
2018-08-19T06:00:46.699Z,16.77
2018-08-19T06:03:14.203Z,16.37
2018-08-19T06:05:41.708Z,16.97
2018-08-19T06:08:10.095Z,17.65
2018-08-19T06:10:38.198Z,16.75
2018-08-19T06:13:07.159Z,16.45
2018-08-19T06:15:34.663Z,16.77
2018-08-19T06:18:02.191Z,15.93
2018-08-19T06:20:30.649Z,15.53
2018-08-19T06:22:58.183Z,15.55
2018-08-19T06:25:25.867Z,16.37
2018-08-19T06:27:56.098Z,15.83
2018-08-19T06:30:23.616Z,16.17
2018-08-19T06:32:51.119Z,15.30
2018-08-19T06:35:18.643Z,15.93
2018-08-19T06:37:46.150Z,15.48
2018-08-19T06:40:21.043Z,15.30
2018-08-19T06:42:48.564Z,16.07
2018-08-19T06:45:16.178Z,15.78
2018-08-19T06:47:43.690Z,15.48
2018-08-19T06:50:21.001Z,15.48
2018-08-19T06:52:48.575Z,14.45
2018-08-19T06:55:16.663Z,15.55
2018-08-19T06:57:44.227Z,15.28
2018-08-19T07:00:18.380Z,15.43
2018-08-19T07:02:46.820Z,13.83
2018-08-19T07:05:14.329Z,14.95
2018-08-19T07:07:41.831Z,14.25
2018-08-19T07:10:09.366Z,13.48
2018-08-19T07:12:36.884Z,13.55
2018-08-19T07:15:05.746Z,13.35
2018-08-19T07:17:33.276Z,14.15
2018-08-19T07:20:00.809Z,13.20
2018-08-19T07:22:28.316Z,12.75
2018-08-19T07:24:55.883Z,12.25
2018-08-19T07:27:23.378Z,12.80
2018-08-19T07:29:51.334Z,12.03
2018-08-19T07:32:18.739Z,12.10
2018-08-19T07:34:46.233Z,11.35
2018-08-19T07:37:13.831Z,11.80
2018-08-19T07:39:47.266Z,11.70
2018-08-19T07:42:14.781Z,12.50
2018-08-19T07:44:42.289Z,11.33
2018-08-19T07:47:09.788Z,11.28
2018-08-19T07:49:37.323Z,11.08
2018-08-19T07:52:05.303Z,11.38
2018-08-19T07:54:32.973Z,10.82
2018-08-19T07:57:17.179Z,11.30
2018-08-19T07:59:46.514Z,10.63
2018-08-19T08:02:14.016Z,11.08
2018-08-19T08:04:43.480Z,10.45
2018-08-19T08:07:11.948Z,9.75
2018-08-19T08:09:40.034Z,9.63
2018-08-19T08:12:07.887Z,9.98
2018-08-19T08:14:36.390Z,9.48
2018-08-19T08:17:06.731Z,9.38
2018-08-19T08:19:34.596Z,9.45
2018-08-19T08:22:17.206Z,8.48
2018-08-19T08:24:44.716Z,8.88
2018-08-19T08:27:12.404Z,8.65
2018-08-19T08:29:39.933Z,8.68
2018-08-19T08:32:07.451Z,9.10
2018-08-19T08:34:34.953Z,7.50
2018-08-19T08:37:03.570Z,7.20
2018-08-19T08:39:32.615Z,7.65
2018-08-19T08:42:00.143Z,6.70
2018-08-19T08:44:28.295Z,6.45
2018-08-19T08:46:58.513Z,7.20
2018-08-19T08:49:30.911Z,6.47
2018-08-19T08:51:58.647Z,7.15
2018-08-19T08:54:26.155Z,6.45
2018-08-19T08:56:53.657Z,6.00
2018-08-19T08:59:21.167Z,6.35
2018-08-19T09:01:48.669Z,7.03
2018-08-19T09:04:16.166Z,5.50
2018-08-19T09:06:43.669Z,6.37
2018-08-19T09:09:11.179Z,5.92
2018-08-19T09:11:38.691Z,5.50
2018-08-19T09:14:06.187Z,6.42
2018-08-19T09:16:33.678Z,6.37
2018-08-19T09:19:01.184Z,6.90
2018-08-19T09:21:28.707Z,6.55
2018-08-19T09:23:56.203Z,6.45
2018-08-19T09:26:23.715Z,6.70
2018-08-19T09:28:51.228Z,7.42
2018-08-19T09:31:18.731Z,6.70
2018-08-19T09:33:46.228Z,6.28
2018-08-19T09:36:13.708Z,6.22
2018-08-19T09:38:41.210Z,6.55
2018-08-19T09:41:08.715Z,6.00
2018-08-19T09:43:36.228Z,6.12
2018-08-19T09:46:03.727Z,6.22
2018-08-19T09:48:31.271Z,6.40
2018-08-19T09:51:06.202Z,6.47
2018-08-19T09:53:35.043Z,5.65
2018-08-19T09:56:09.443Z,6.12
2018-08-19T09:58:37.414Z,6.35
2018-08-19T10:01:11.387Z,6.33
2018-08-19T10:03:39.291Z,6.28
2018-08-19T10:06:07.090Z,6.40
2018-08-19T10:08:34.604Z,5.83
2018-08-19T10:11:02.135Z,6.15
2018-08-19T10:13:29.668Z,6.78
2018-08-19T10:15:57.722Z,6.60
2018-08-19T10:18:25.228Z,6.28
2018-08-19T10:20:52.731Z,5.42
2018-08-19T10:23:23.359Z,6.00
2018-08-19T10:25:51.758Z,5.97
2018-08-19T10:28:19.263Z,6.30
2018-08-19T10:30:55.288Z,6.72
2018-08-19T10:33:22.814Z,6.00
2018-08-19T10:35:50.587Z,7.75
2018-08-19T10:38:18.096Z,5.80
2018-08-19T10:40:51.894Z,6.22
2018-08-19T10:43:19.879Z,5.87
2018-08-19T10:45:47.377Z,6.50
2018-08-19T10:48:14.885Z,6.33
2018-08-19T10:50:42.407Z,5.67
2018-08-19T10:53:16.421Z,6.85
2018-08-19T10:55:45.199Z,6.20
2018-08-19T10:58:12.705Z,6.87
2018-08-19T11:00:40.260Z,6.37
2018-08-19T11:03:14.552Z,6.70
2018-08-19T11:05:42.827Z,6.42
2018-08-19T11:08:11.079Z,6.78
2018-08-19T11:10:38.692Z,6.78
2018-08-19T11:13:06.547Z,6.12
2018-08-19T11:15:43.799Z,6.80
2018-08-19T11:18:39.108Z,6.85
2018-08-19T11:21:22.511Z,5.67
2018-08-19T11:23:50.015Z,5.95
2018-08-19T11:26:17.523Z,6.37
2018-08-19T11:29:01.811Z,6.70
2018-08-19T11:31:31.604Z,6.20
2018-08-19T11:34:04.233Z,6.12
2018-08-19T11:36:38.143Z,6.37
2018-08-19T11:39:09.914Z,6.53
2018-08-19T11:41:37.436Z,6.40
2018-08-19T11:44:07.724Z,6.10
2018-08-19T11:46:35.431Z,6.50
2018-08-19T11:49:17.217Z,6.40
2018-08-19T11:51:58.903Z,6.42
2018-08-19T11:54:27.082Z,6.50
2018-08-19T11:57:01.949Z,6.50
2018-08-19T11:59:35.316Z,6.22
2018-08-19T12:02:04.283Z,6.20
2018-08-19T12:04:31.750Z,6.50
2018-08-19T12:06:59.267Z,6.95
2018-08-19T12:09:26.790Z,6.35
2018-08-19T12:11:54.287Z,6.62
2018-08-19T12:14:21.827Z,6.33
2018-08-19T12:16:56.581Z,6.33
2018-08-19T12:19:25.314Z,6.03
2018-08-19T12:21:55.955Z,6.22
2018-08-19T12:24:28.270Z,6.78
2018-08-19T12:26:58.137Z,6.60
2018-08-19T12:29:27.835Z,6.33
2018-08-19T12:32:07.687Z,6.50
2018-08-19T12:34:43.701Z,6.28
2018-08-19T12:37:12.239Z,6.40
2018-08-19T12:39:39.688Z,6.25
2018-08-19T12:42:07.211Z,6.40
2018-08-19T12:44:34.704Z,6.60
2018-08-19T12:47:17.679Z,6.03
2018-08-19T12:49:46.842Z,7.67
2018-08-19T12:52:18.390Z,6.40
2018-08-19T12:54:49.815Z,6.03
2018-08-19T12:57:17.328Z,8.73
2018-08-19T12:59:44.843Z,6.37
2018-08-19T13:02:12.381Z,6.10
2018-08-19T13:04:39.948Z,6.55
2018-08-19T13:07:09.276Z,6.28
2018-08-19T13:09:36.959Z,6.05
2018-08-19T13:12:06.945Z,6.62
2018-08-19T13:14:34.484Z,7.92
2018-08-19T13:17:01.991Z,6.83
2018-08-19T13:19:30.034Z,6.80
2018-08-19T13:21:57.907Z,6.37
2018-08-19T13:24:31.115Z,6.75
2018-08-19T13:26:58.966Z,6.65
2018-08-19T13:29:26.467Z,6.17
2018-08-19T13:31:53.976Z,7.80
2018-08-19T13:34:23.194Z,6.03
2018-08-19T13:36:50.700Z,6.35
2018-08-19T13:39:18.194Z,6.72
2018-08-19T13:41:45.705Z,6.17
2018-08-19T13:44:13.221Z,6.15
2018-08-19T13:46:40.723Z,5.80
2018-08-19T13:49:08.227Z,5.95
2018-08-19T13:51:35.731Z,6.30
2018-08-19T13:54:03.291Z,5.90
2018-08-19T13:56:30.812Z,6.10
2018-08-19T13:58:58.311Z,6.40
2018-08-19T14:01:25.823Z,5.92
2018-08-19T14:03:53.331Z,6.03
2018-08-19T14:06:20.835Z,6.17
2018-08-19T14:08:48.327Z,5.95
2018-08-19T14:11:16.603Z,6.40
2018-08-19T14:13:44.132Z,6.12
2018-08-19T14:16:18.443Z,6.28
2018-08-19T14:18:45.947Z,6.00
2018-08-19T14:21:13.452Z,5.83
2018-08-19T14:23:40.948Z,6.58
2018-08-19T14:26:08.463Z,6.30
2018-08-19T14:28:35.955Z,5.75
2018-08-19T14:31:03.463Z,5.80
2018-08-19T14:33:30.975Z,6.03
2018-08-19T14:35:58.476Z,7.20
2018-08-19T14:38:25.971Z,6.22
2018-08-19T14:40:53.482Z,5.10
2018-08-19T14:43:21.012Z,5.83
2018-08-19T14:45:48.515Z,6.67
2018-08-19T14:48:16.021Z,5.67
2018-08-19T14:50:43.579Z,6.25
2018-08-19T14:53:11.073Z,5.42
2018-08-19T14:55:38.563Z,5.35
2018-08-19T14:58:06.066Z,5.78
2018-08-19T15:00:33.565Z,5.65
2018-08-19T15:03:01.076Z,5.20
2018-08-19T15:05:28.558Z,5.40
2018-08-19T15:08:05.559Z,5.97
2018-08-19T15:10:33.633Z,5.47
2018-08-19T15:13:01.783Z,8.13
2018-08-19T15:15:29.287Z,5.95
2018-08-19T15:17:58.825Z,5.62
2018-08-19T15:20:32.342Z,5.35
2018-08-19T15:23:20.475Z,6.22
2018-08-19T15:25:47.972Z,6.10
2018-08-19T15:28:16.316Z,5.58
2018-08-19T15:30:43.815Z,5.40
2018-08-19T15:33:12.532Z,5.67
2018-08-19T15:35:40.216Z,5.20
2018-08-19T15:38:07.759Z,5.90
2018-08-19T15:40:44.744Z,5.33
2018-08-19T15:43:16.019Z,5.50
2018-08-19T15:45:44.079Z,5.92
2018-08-19T15:48:11.746Z,5.62
2018-08-19T15:50:39.313Z,5.17
2018-08-19T15:53:07.887Z,5.25
2018-08-19T15:55:35.763Z,5.42
2018-08-19T15:58:03.936Z,5.58
2018-08-19T16:00:35.792Z,5.97
2018-08-19T16:03:03.321Z,6.00
2018-08-19T16:05:30.814Z,5.50
2018-08-19T16:07:58.322Z,6.00
2018-08-19T16:10:25.835Z,5.90
2018-08-19T16:12:53.357Z,6.10
2018-08-19T16:15:22.107Z,5.55
2018-08-19T16:17:49.862Z,5.45
2018-08-19T16:20:17.357Z,4.75
2018-08-19T16:22:44.855Z,4.83
2018-08-19T16:25:12.342Z,5.67
2018-08-19T16:27:39.879Z,5.55
2018-08-19T16:30:07.386Z,5.22
2018-08-19T16:32:34.884Z,4.85
2018-08-19T16:35:02.407Z,5.62
2018-08-19T16:37:29.973Z,7.30
2018-08-19T16:39:57.442Z,6.92
2018-08-19T16:42:24.967Z,6.15
2018-08-19T16:44:52.524Z,5.20
2018-08-19T16:47:20.010Z,5.65
2018-08-19T16:49:47.509Z,6.87
2018-08-19T16:52:15.016Z,5.90
2018-08-19T16:54:42.526Z,6.95
2018-08-19T16:57:10.090Z,5.85
2018-08-19T16:59:37.579Z,6.28
2018-08-19T17:02:05.100Z,6.58
2018-08-19T17:04:34.580Z,5.70
2018-08-19T17:07:02.078Z,15.65
2018-08-19T17:09:29.654Z,6.45
2018-08-19T17:11:57.169Z,7.97
2018-08-19T17:14:28.326Z,8.43
2018-08-19T17:16:55.828Z,7.05
2018-08-19T17:19:23.338Z,6.15
2018-08-19T17:21:50.837Z,6.25
2018-08-19T17:24:18.356Z,5.87
2018-08-19T17:26:45.988Z,6.00
2018-08-19T17:29:17.263Z,5.22
2018-08-19T17:31:45.038Z,5.50
2018-08-19T17:34:17.159Z,5.37
2018-08-19T17:36:44.803Z,5.50
2018-08-19T17:39:14.948Z,5.30
2018-08-19T17:41:42.428Z,5.55
2018-08-19T17:44:09.930Z,5.55
2018-08-19T17:46:37.424Z,5.58
2018-08-19T17:49:10.268Z,5.53
2018-08-19T17:51:37.775Z,5.28
2018-08-19T17:54:14.136Z,5.40
2018-08-19T17:56:41.634Z,5.62
2018-08-19T17:59:09.147Z,6.22
2018-08-19T18:01:39.672Z,5.67
2018-08-19T18:04:07.339Z,7.62
2018-08-19T18:06:34.848Z,6.55
2018-08-19T18:09:04.239Z,5.47
2018-08-19T18:11:31.731Z,5.60
2018-08-19T18:13:59.239Z,5.92
2018-08-19T18:16:26.736Z,8.85
2018-08-19T18:18:55.222Z,6.30
2018-08-19T18:21:22.726Z,8.63
2018-08-19T18:23:50.219Z,8.85
2018-08-19T18:26:17.730Z,6.45
2018-08-19T18:28:47.003Z,6.22
2018-08-19T18:31:19.359Z,6.15
2018-08-19T18:33:52.785Z,5.70
2018-08-19T18:36:21.431Z,5.60
2018-08-19T18:38:48.960Z,5.37
2018-08-19T18:41:24.076Z,6.30
2018-08-19T18:43:53.855Z,5.87
2018-08-19T18:46:22.005Z,7.05
2018-08-19T18:48:56.251Z,6.10
2018-08-19T18:51:25.339Z,5.37
2018-08-19T18:53:52.847Z,5.55
2018-08-19T18:56:20.348Z,6.40
2018-08-19T18:58:47.861Z,5.80
2018-08-19T19:01:15.374Z,5.87
2018-08-19T19:03:42.879Z,5.45
2018-08-19T19:06:10.367Z,7.20
2018-08-19T19:08:37.875Z,6.20
2018-08-19T19:11:05.406Z,6.12
2018-08-19T19:13:33.984Z,8.78
2018-08-19T19:16:01.489Z,7.35
2018-08-19T19:18:29.003Z,6.40
2018-08-19T19:20:59.527Z,6.97
2018-08-19T19:23:30.224Z,5.97
2018-08-19T19:25:58.454Z,7.40
2018-08-19T19:28:26.024Z,6.62
2018-08-19T19:31:00.468Z,6.10
2018-08-19T19:33:27.986Z,5.90
2018-08-19T19:35:57.931Z,5.58
2018-08-19T19:38:25.443Z,7.15
2018-08-19T19:40:57.560Z,5.87
2018-08-19T19:43:25.360Z,7.37
2018-08-19T19:45:52.855Z,6.03
2018-08-19T19:48:20.367Z,7.60
2018-08-19T19:50:47.864Z,6.70
2018-08-19T19:53:15.369Z,7.78
2018-08-19T19:55:42.879Z,6.95
2018-08-19T19:58:10.385Z,8.05
2018-08-19T20:00:51.728Z,6.42
2018-08-19T20:03:19.905Z,7.40
2018-08-19T20:05:47.401Z,7.72
2018-08-19T20:08:14.895Z,6.62
2018-08-19T20:10:42.371Z,7.08
2018-08-19T20:13:09.867Z,6.25
2018-08-19T20:15:37.436Z,6.42
2018-08-19T20:18:04.883Z,6.70
2018-08-19T20:20:32.378Z,7.20
2018-08-19T20:23:03.411Z,6.15
2018-08-19T20:25:30.911Z,6.78
2018-08-19T20:28:03.033Z,7.12
2018-08-19T20:30:30.543Z,6.95
2018-08-19T20:32:58.210Z,6.53
2018-08-19T20:35:25.603Z,7.05
2018-08-19T20:37:53.870Z,7.72
2018-08-19T20:40:21.371Z,6.37
2018-08-19T20:42:48.880Z,7.10
2018-08-19T20:45:16.387Z,6.80
2018-08-19T20:47:43.884Z,6.65
2018-08-19T20:50:11.471Z,6.65
2018-08-19T20:52:42.783Z,6.45
2018-08-19T20:55:11.259Z,6.90
2018-08-19T20:57:38.742Z,6.53
2018-08-19T21:00:07.317Z,7.25
2018-08-19T21:02:34.710Z,7.08
2018-08-19T21:05:02.292Z,6.30
2018-08-19T21:07:29.791Z,6.47
2018-08-19T21:09:57.319Z,7.33
2018-08-19T21:12:24.815Z,7.12
2018-08-19T21:14:52.403Z,7.47
2018-08-19T21:17:19.864Z,7.50
2018-08-19T21:19:47.363Z,7.37
2018-08-19T21:22:14.858Z,8.18
2018-08-19T21:24:42.355Z,7.65
2018-08-19T21:27:09.830Z,7.65
2018-08-19T21:29:37.369Z,7.62
2018-08-19T21:32:04.866Z,7.92
2018-08-19T21:34:32.358Z,7.90
2018-08-19T21:37:00.098Z,7.47
2018-08-19T21:39:27.663Z,7.80
2018-08-19T21:41:55.512Z,8.75
2018-08-19T21:44:23.035Z,7.80
2018-08-19T21:46:50.576Z,8.18
2018-08-19T21:49:18.082Z,8.30
2018-08-19T21:51:45.575Z,9.20
2018-08-19T21:54:14.144Z,8.80
2018-08-19T21:56:41.891Z,8.68
2018-08-19T21:59:14.031Z,8.75
2018-08-19T22:01:51.446Z,7.70
2018-08-19T22:04:20.039Z,8.05
2018-08-19T22:06:47.572Z,8.88
2018-08-19T22:09:29.414Z,8.10
2018-08-19T22:11:58.070Z,9.85
2018-08-19T22:14:25.576Z,9.50
2018-08-19T22:16:57.931Z,10.70
2018-08-19T22:19:25.579Z,12.30
2018-08-19T22:21:53.087Z,9.73
2018-08-19T22:24:27.439Z,9.25
2018-08-19T22:27:02.931Z,9.90
2018-08-19T22:29:30.459Z,10.68
2018-08-19T22:31:57.951Z,10.75
2018-08-19T22:34:25.456Z,12.47
2018-08-19T22:36:52.983Z,10.50
2018-08-19T22:39:20.511Z,11.30
2018-08-19T22:41:49.587Z,11.33
2018-08-19T22:44:17.159Z,11.85
2018-08-19T22:46:44.651Z,11.70
2018-08-19T22:49:12.151Z,11.83
2018-08-19T22:51:39.659Z,11.60
2018-08-19T22:54:07.169Z,11.78
2018-08-19T22:56:34.671Z,11.97
2018-08-19T22:59:02.174Z,12.47
2018-08-19T23:01:35.450Z,12.03
2018-08-19T23:04:03.247Z,12.15
2018-08-19T23:06:31.439Z,12.20
2018-08-19T23:08:59.191Z,12.10
2018-08-19T23:11:34.847Z,12.25
2018-08-19T23:14:20.144Z,12.47
2018-08-19T23:16:47.643Z,11.20
2018-08-19T23:19:18.143Z,11.10
2018-08-19T23:21:45.650Z,13.35
2018-08-19T23:24:13.139Z,11.50
2018-08-19T23:26:40.635Z,12.70
2018-08-19T23:29:08.143Z,12.60
2018-08-19T23:31:35.652Z,12.18
2018-08-19T23:34:03.163Z,11.10
2018-08-19T23:36:30.660Z,12.75
2018-08-19T23:38:58.155Z,12.05
2018-08-19T23:41:25.659Z,11.80
2018-08-19T23:43:53.156Z,11.93
2018-08-19T23:46:20.646Z,12.00
2018-08-19T23:48:48.138Z,11.78
2018-08-19T23:51:19.188Z,12.37
2018-08-19T23:53:46.680Z,11.08
2018-08-19T23:56:14.183Z,11.73
2018-08-19T23:58:44.402Z,12.75
